Time;durP1;ratioP1;P1;durP2;ratioP2;P2;SDS_P1;SDS_P2;PMS_P1;PMS_P2;Temp;Humidity;BMP_temperature;BMP_pressure;BME280_temperature;BME280_humidity;BME280_pressure;Samples;Min_cycle;Max_cycle;Signal;HPM_P1;HPM_P2
2022/12/07 00:00:16;;;;;;;8.30;7.50;;;;;21.00;100547.00;;;;2079127;28;20214;-50
2022/12/07 00:01:27;;;;;;;8.00;7.23;;;;;21.00;100549.00;;;;2078379;28;20218;-50
2022/12/07 00:02:27;;;;;;;8.32;7.55;;;;;21.00;100549.00;;;;2078221;28;20589;-50
2022/12/07 00:03:28;;;;;;;7.80;7.10;;;;;20.90;100551.00;;;;2078782;28;20221;-51
2022/12/07 00:04:28;;;;;;;7.90;7.20;;;;;21.00;100548.00;;;;2078862;28;20220;-50
2022/12/07 00:05:29;;;;;;;7.60;6.80;;;;;21.00;100547.00;;;;2079137;28;20283;-50
2022/12/07 00:06:30;;;;;;;7.37;6.77;;;;;21.00;100549.00;;;;2078661;28;20237;-51
2022/12/07 00:07:30;;;;;;;7.53;6.93;;;;;21.10;100542.00;;;;2078869;28;20553;-50
2022/12/07 00:08:31;;;;;;;10.13;6.63;;;;;21.10;100537.00;;;;2078753;28;20221;-52
2022/12/07 00:09:31;;;;;;;11.38;7.60;;;;;21.00;100545.00;;;;2078222;28;20222;-52
2022/12/07 00:10:33;;;;;;;7.20;6.50;;;;;21.00;100549.00;;;;2078587;28;20248;-51
2022/12/07 00:11:34;;;;;;;8.05;7.35;;;;;21.00;100554.00;;;;2073262;28;20213;-51
2022/12/07 00:12:34;;;;;;;7.27;6.63;;;;;20.90;100549.00;;;;2078066;28;20218;-51
2022/12/07 00:13:35;;;;;;;7.80;6.67;;;;;20.90;100560.00;;;;2078880;28;20629;-51
2022/12/07 00:14:35;;;;;;;7.83;6.30;;;;;20.90;100546.00;;;;2079013;28;20210;-50
2022/12/07 00:15:35;;;;;;;7.20;6.50;;;;;20.80;100548.00;;;;2078958;28;20247;-49
2022/12/07 00:16:36;;;;;;;8.03;7.30;;;;;20.80;100542.00;;;;2079053;28;20321;-51
2022/12/07 00:17:36;;;;;;;7.53;6.83;;;;;20.80;100553.00;;;;2078691;28;20355;-50
2022/12/07 00:18:37;;;;;;;9.10;6.57;;;;;20.80;100545.00;;;;2078838;28;20213;-51
2022/12/07 00:19:37;;;;;;;8.37;6.90;;;;;20.70;100552.00;;;;2078385;28;20224;-50
2022/12/07 00:20:37;;;;;;;7.03;6.00;;;;;20.70;100548.00;;;;2078287;28;20297;-52
2022/12/07 00:21:37;;;;;;;6.80;6.20;;;;;20.70;100552.00;;;;2078671;28;20233;-50
2022/12/07 00:22:38;;;;;;;8.97;6.60;;;;;20.70;100548.00;;;;2077834;28;20263;-51
2022/12/07 00:23:38;;;;;;;7.50;6.80;;;;;20.70;100542.00;;;;2078753;28;20223;-53
2022/12/07 00:24:39;;;;;;;7.10;6.40;;;;;20.70;100544.00;;;;2078860;28;20713;-51
2022/12/07 00:25:39;;;;;;;7.30;6.70;;;;;20.70;100517.00;;;;2078894;28;20358;-52
2022/12/07 00:26:40;;;;;;;7.37;6.67;;;;;20.70;100518.00;;;;2079024;28;20287;-51
2022/12/07 00:27:40;;;;;;;7.17;6.57;;;;;20.70;100545.00;;;;2077915;28;20707;-50
2022/12/07 00:28:40;;;;;;;7.50;6.27;;;;;20.70;100547.00;;;;2077916;28;20235;-52
2022/12/07 00:29:41;;;;;;;6.90;5.83;;;;;20.70;100543.00;;;;2078869;28;20213;-51
2022/12/07 00:30:41;;;;;;;7.57;6.17;;;;;20.70;100540.00;;;;2078064;28;20232;-50
2022/12/07 00:31:41;;;;;;;6.50;5.97;;;;;20.70;100543.00;;;;2077909;28;20210;-51
2022/12/07 00:32:42;;;;;;;8.03;7.33;;;;;20.60;100543.00;;;;2077958;28;20221;-51
2022/12/07 00:33:42;;;;;;;6.77;6.17;;;;;20.60;100540.00;;;;2078385;28;20233;-49
2022/12/07 00:34:42;;;;;;;6.17;5.67;;;;;20.60;100545.00;;;;2078866;28;20233;-51
2022/12/07 00:35:43;;;;;;;6.97;6.37;;;;;20.60;100542.00;;;;2078728;28;20224;-52
2022/12/07 00:36:43;;;;;;;6.50;5.90;;;;;20.60;100537.00;;;;2078878;28;20236;-50
2022/12/07 00:37:43;;;;;;;6.80;6.10;;;;;20.60;100538.00;;;;2071814;28;20232;-50
2022/12/07 00:38:44;;;;;;;7.07;6.47;;;;;20.60;100524.00;;;;2077539;28;20717;-51
2022/12/07 00:39:45;;;;;;;7.10;6.40;;;;;20.60;100537.00;;;;2067959;28;20210;-50
2022/12/07 00:40:54;;;;;;;6.85;6.25;;;;;20.60;100536.00;;;;2061520;28;20225;-50
2022/12/07 00:41:54;;;;;;;7.80;7.05;;;;;20.60;100540.00;;;;2082190;28;20231;-50
2022/12/07 00:42:54;;;;;;;7.33;6.60;;;;;20.60;100536.00;;;;2086939;28;20212;-49
2022/12/07 00:43:55;;;;;;;7.70;7.10;;;;;20.60;100531.00;;;;2086497;28;20290;-49
2022/12/07 00:44:55;;;;;;;7.40;6.70;;;;;20.60;100529.00;;;;2086767;28;20221;-52
2022/12/07 00:45:56;;;;;;;8.00;7.30;;;;;20.60;100544.00;;;;2086929;28;20828;-51
2022/12/07 00:46:56;;;;;;;7.70;7.00;;;;;20.50;100532.00;;;;2086824;28;20637;-49
2022/12/07 00:47:56;;;;;;;8.30;7.60;;;;;20.50;100533.00;;;;2087090;28;20217;-50
2022/12/07 00:48:57;;;;;;;7.00;6.40;;;;;20.60;100525.00;;;;2086336;28;20697;-51
2022/12/07 00:49:57;;;;;;;7.23;6.60;;;;;20.50;100528.00;;;;2086584;28;20844;-49
2022/12/07 00:50:57;;;;;;;6.83;6.23;;;;;20.50;100528.00;;;;2087078;28;20995;-49
2022/12/07 00:51:58;;;;;;;7.90;7.10;;;;;20.50;100530.00;;;;2086025;28;20570;-49
2022/12/07 00:52:58;;;;;;;9.00;6.60;;;;;20.50;100528.00;;;;2085468;28;20217;-51
2022/12/07 00:53:58;;;;;;;7.93;7.23;;;;;20.50;100523.00;;;;2085642;28;20220;-51
2022/12/07 00:54:59;;;;;;;7.60;7.00;;;;;20.50;100522.00;;;;2085946;28;20300;-52
2022/12/07 00:56:24;;;;;;;7.80;7.10;;;;;20.50;100524.00;;;;2079826;28;20228;-50
2022/12/07 00:57:25;;;;;;;8.15;7.45;;;;;20.50;100527.00;;;;2083864;28;20684;-50
2022/12/07 00:58:25;;;;;;;7.70;7.00;;;;;20.40;100530.00;;;;2086457;28;20209;-50
2022/12/07 00:59:25;;;;;;;7.00;6.40;;;;;20.50;100524.00;;;;2086105;28;20578;-50
2022/12/07 01:00:25;;;;;;;7.30;6.70;;;;;20.40;100527.00;;;;2086313;28;20213;-49
2022/12/07 01:01:27;;;;;;;7.83;7.13;;;;;20.40;100518.00;;;;2083442;28;20205;-49
2022/12/07 01:02:27;;;;;;;7.68;6.97;;;;;20.40;100526.00;;;;2077403;28;20228;-50
2022/12/07 01:03:28;;;;;;;8.30;7.60;;;;;20.40;100524.00;;;;2077791;28;20217;-50
2022/12/07 01:04:29;;;;;;;9.13;8.27;;;;;20.40;100526.00;;;;2077843;28;20224;-51
2022/12/07 01:05:29;;;;;;;8.10;7.43;;;;;20.40;100535.00;;;;2078510;28;20731;-50
2022/12/07 01:06:30;;;;;;;8.77;7.97;;;;;20.40;100524.00;;;;2078783;28;20220;-51
2022/12/07 01:07:30;;;;;;;7.73;7.13;;;;;20.40;100522.00;;;;2078659;28;20228;-49
2022/12/07 01:08:30;;;;;;;8.33;7.47;;;;;20.40;100527.00;;;;2078620;28;20205;-50
2022/12/07 01:09:31;;;;;;;8.07;7.27;;;;;20.40;100522.00;;;;2078288;28;20210;-52
2022/12/07 01:10:31;;;;;;;9.17;8.37;;;;;20.40;100526.00;;;;2078475;28;20404;-53
2022/12/07 01:11:31;;;;;;;8.47;7.67;;;;;20.40;100516.00;;;;2078184;28;20265;-51
2022/12/07 01:12:32;;;;;;;9.10;8.30;;;;;20.40;100524.00;;;;2077771;28;20294;-51
2022/12/07 01:13:33;;;;;;;8.97;8.13;;;;;20.40;100527.00;;;;2078393;28;20230;-50
2022/12/07 01:14:33;;;;;;;8.13;7.43;;;;;20.40;100519.00;;;;2078239;28;20232;-52
2022/12/07 01:15:33;;;;;;;8.43;7.63;;;;;20.30;100515.00;;;;2078492;28;21129;-52
2022/12/07 01:16:34;;;;;;;8.27;7.57;;;;;20.30;100498.00;;;;2078331;28;20221;-50
2022/12/07 01:17:34;;;;;;;8.27;7.47;;;;;20.40;100518.00;;;;2078573;28;20263;-49
2022/12/07 01:18:35;;;;;;;8.27;7.57;;;;;20.40;100521.00;;;;2078601;28;20244;-50
2022/12/07 01:19:35;;;;;;;9.00;8.20;;;;;20.40;100520.00;;;;2079405;28;20218;-49
2022/12/07 01:20:35;;;;;;;8.57;7.80;;;;;20.30;100523.00;;;;2080199;28;20217;-52
2022/12/07 01:21:37;;;;;;;9.30;8.50;;;;;20.40;100521.00;;;;2079781;28;20225;-50
2022/12/07 01:22:38;;;;;;;8.68;7.88;;;;;20.40;100517.00;;;;2077695;28;20213;-52
2022/12/07 01:23:38;;;;;;;8.88;8.07;;;;;20.30;100517.00;;;;2080052;28;20232;-51
2022/12/07 01:24:39;;;;;;;8.60;7.90;;;;;20.30;100519.00;;;;2079637;28;20220;-52
2022/12/07 01:25:39;;;;;;;8.40;7.70;;;;;20.30;100516.00;;;;2080054;28;20270;-50
2022/12/07 01:26:39;;;;;;;8.80;8.00;;;;;20.30;100521.00;;;;2079946;28;20239;-50
2022/12/07 01:27:40;;;;;;;9.20;8.40;;;;;20.30;100512.00;;;;2080236;28;20275;-51
2022/12/07 01:28:40;;;;;;;9.13;8.33;;;;;20.30;100520.00;;;;2080092;28;20206;-51
2022/12/07 01:29:40;;;;;;;9.77;8.87;;;;;20.30;100524.00;;;;2079834;28;20314;-49
2022/12/07 01:30:41;;;;;;;9.63;8.73;;;;;20.30;100518.00;;;;2080119;28;20697;-49
2022/12/07 01:31:41;;;;;;;9.97;8.97;;;;;20.30;100522.00;;;;2079789;28;20220;-52
2022/12/07 01:32:41;;;;;;;9.17;8.37;;;;;20.30;100520.00;;;;2078763;28;20220;-49
2022/12/07 01:33:44;;;;;;;9.13;8.33;;;;;20.30;100520.00;;;;2079919;28;20210;-48
2022/12/07 01:34:44;;;;;;;8.48;7.78;;;;;20.30;100521.00;;;;2086432;28;20312;-50
2022/12/07 01:35:44;;;;;;;9.83;9.00;;;;;20.30;100519.00;;;;2088254;28;20216;-52
2022/12/07 01:36:45;;;;;;;9.07;8.17;;;;;20.30;100514.00;;;;2087872;28;20212;-51
2022/12/07 01:37:45;;;;;;;10.40;9.50;;;;;20.20;100517.00;;;;2088067;28;20295;-52
2022/12/07 01:38:46;;;;;;;9.67;8.83;;;;;20.20;100516.00;;;;2085448;28;20220;-49
2022/12/07 01:39:50;;;;;;;9.40;8.60;;;;;20.20;100517.00;;;;2079495;28;20209;-54
2022/12/07 01:40:55;;;;;;;10.73;9.82;;;;;20.20;100508.00;;;;2084480;28;20478;-49
2022/12/07 01:41:56;;;;;;;10.07;8.70;;;;;20.20;100523.00;;;;2086912;28;20225;-49
2022/12/07 01:42:56;;;;;;;9.53;8.60;;;;;20.20;100522.00;;;;2087955;28;20307;-49
2022/12/07 01:44:12;;;;;;;10.47;9.50;;;;;20.20;100526.00;;;;2088112;28;20201;-51
2022/12/07 01:45:18;;;;;;;10.35;9.38;;;;;20.20;100524.00;;;;2088045;28;20218;-49
2022/12/07 01:46:18;;;;;;;11.43;10.23;;;;;20.20;100521.00;;;;2087864;28;20274;-50
2022/12/07 01:47:19;;;;;;;9.77;8.90;;;;;20.20;100525.00;;;;2088263;28;20232;-50
2022/12/07 01:48:22;;;;;;;10.60;9.50;;;;;20.20;100526.00;;;;2088011;28;20266;-52
2022/12/07 01:49:26;;;;;;;10.90;9.88;;;;;20.20;100526.00;;;;2086997;28;20251;-49
2022/12/07 01:50:27;;;;;;;11.15;10.20;;;;;20.20;100527.00;;;;2087222;28;20300;-49
2022/12/07 01:51:28;;;;;;;10.98;9.98;;;;;20.20;100518.00;;;;2086694;28;20209;-51
2022/12/07 01:52:30;;;;;;;10.80;9.90;;;;;20.20;100519.00;;;;2087285;28;20217;-50
2022/12/07 01:53:30;;;;;;;10.85;9.88;;;;;20.20;100526.00;;;;2086948;28;20213;-52
2022/12/07 01:54:31;;;;;;;9.23;8.53;;;;;20.20;100519.00;;;;2087149;28;20213;-49
2022/12/07 01:55:31;;;;;;;11.43;10.43;;;;;20.20;100520.00;;;;2083671;28;20241;-50
2022/12/07 01:56:31;;;;;;;12.03;10.93;;;;;20.20;100523.00;;;;2079100;28;20301;-53
2022/12/07 01:57:32;;;;;;;11.00;9.90;;;;;20.20;100523.00;;;;2079066;28;20220;-51
2022/12/07 01:58:33;;;;;;;10.60;9.60;;;;;20.20;100520.00;;;;2079215;28;20209;-50
2022/12/07 01:59:33;;;;;;;11.10;10.10;;;;;20.20;100519.00;;;;2078610;28;20488;-49
2022/12/07 02:00:33;;;;;;;11.47;10.37;;;;;20.20;100518.00;;;;2079052;28;20239;-51
2022/12/07 02:01:34;;;;;;;10.13;9.23;;;;;20.10;100520.00;;;;2079638;28;20201;-51
2022/12/07 02:02:36;;;;;;;11.50;10.30;;;;;20.10;100516.00;;;;2077665;28;20310;-51
2022/12/07 02:03:41;;;;;;;10.85;9.88;;;;;20.10;100503.00;;;;2079226;28;20904;-51
2022/12/07 02:04:41;;;;;;;11.27;10.18;;;;;20.10;100514.00;;;;2078964;28;20216;-50
2022/12/07 02:05:42;;;;;;;10.73;9.83;;;;;20.10;100504.00;;;;2079111;28;20233;-49
2022/12/07 02:06:42;;;;;;;10.43;9.50;;;;;20.10;100511.00;;;;2078868;28;20224;-51
2022/12/07 02:07:43;;;;;;;10.87;9.77;;;;;20.10;100503.00;;;;2079203;28;20220;-49
2022/12/07 02:08:43;;;;;;;11.60;10.60;;;;;20.20;100509.00;;;;2070774;28;20233;-49
2022/12/07 02:09:43;;;;;;;11.20;10.20;;;;;20.20;100503.00;;;;2070203;28;20210;-50
2022/12/07 02:10:44;;;;;;;11.30;10.20;;;;;20.10;100504.00;;;;2078864;28;20216;-49
2022/12/07 02:11:44;;;;;;;10.40;9.50;;;;;20.20;100513.00;;;;2079244;28;20210;-49
2022/12/07 02:12:45;;;;;;;9.90;9.10;;;;;20.20;100507.00;;;;2078210;28;20210;-51
2022/12/07 02:13:46;;;;;;;11.43;10.43;;;;;20.10;100507.00;;;;2077856;28;20608;-49
2022/12/07 02:14:46;;;;;;;11.60;10.50;;;;;20.10;100505.00;;;;2078598;28;20218;-50
2022/12/07 02:16:05;;;;;;;10.97;10.00;;;;;20.10;100510.00;;;;2070750;28;20218;-51
2022/12/07 02:17:11;;;;;;;11.50;10.40;;;;;20.10;100505.00;;;;2085784;28;20216;-49
2022/12/07 02:18:19;;;;;;;10.27;9.43;;;;;20.10;100498.00;;;;2087770;28;20209;-50
2022/12/07 02:19:53;;;;;;;11.93;10.82;;;;;20.10;100508.00;;;;2086992;28;20240;-50
2022/12/07 02:21:19;;;;;;;11.35;10.35;;;;;20.10;100510.00;;;;2064719;28;20217;-51
2022/12/07 02:23:00;;;;;;;10.80;9.77;;;;;20.10;100515.00;;;;2076152;28;20227;-51
2022/12/07 02:24:15;;;;;;;11.90;10.70;;;;;20.10;100510.00;;;;2074197;28;20304;-50
2022/12/07 02:25:41;;;;;;;12.00;10.80;;;;;20.10;100505.00;;;;2080089;28;20213;-49
2022/12/07 02:26:47;;;;;;;11.95;10.85;;;;;20.00;100504.00;;;;2077921;28;20218;-51
2022/12/07 02:27:53;;;;;;;11.77;10.68;;;;;20.00;100503.00;;;;2081071;28;20848;-49
2022/12/07 02:29:22;;;;;;;10.50;9.45;;;;;20.10;100505.00;;;;2085784;28;20287;-50
2022/12/07 02:30:23;;;;;;;11.90;10.90;;;;;20.00;100507.00;;;;2085463;28;20579;-49
2022/12/07 02:31:23;;;;;;;12.07;11.00;;;;;20.00;100508.00;;;;2086309;28;20209;-49
2022/12/07 02:32:44;;;;;;;12.30;11.10;;;;;20.00;100513.00;;;;2085112;28;20742;-52
2022/12/07 02:33:46;;;;;;;11.27;10.15;;;;;20.00;100505.00;;;;2086638;28;20220;-51
2022/12/07 02:34:53;;;;;;;12.20;11.10;;;;;20.00;100514.00;;;;2086218;28;20220;-51
2022/12/07 02:35:57;;;;;;;11.45;10.40;;;;;20.00;100505.00;;;;2085463;28;20247;-50
2022/12/07 02:37:01;;;;;;;12.55;11.43;;;;;20.00;100515.00;;;;2085150;28;20258;-52
2022/12/07 02:38:22;;;;;;;11.90;10.80;;;;;20.00;100506.00;;;;2085499;28;20212;-49
2022/12/07 02:39:28;;;;;;;11.50;10.50;;;;;20.00;100517.00;;;;2086014;28;20220;-48
2022/12/07 02:40:34;;;;;;;12.65;11.48;;;;;20.00;100509.00;;;;2078423;28;20288;-50
2022/12/07 02:41:42;;;;;;;12.27;11.05;;;;;19.90;100509.00;;;;2063612;28;20281;-51
2022/12/07 02:42:50;;;;;;;11.75;10.60;;;;;20.00;100518.00;;;;2070488;28;20210;-51
2022/12/07 02:43:52;;;;;;;12.27;11.27;;;;;20.00;100518.00;;;;2078687;28;20237;-50
2022/12/07 02:44:52;;;;;;;12.90;11.75;;;;;20.00;100511.00;;;;2076098;28;20210;-51
2022/12/07 02:45:55;;;;;;;12.60;11.40;;;;;19.90;100512.00;;;;2070463;28;20218;-51
2022/12/07 02:46:58;;;;;;;12.40;11.30;;;;;19.90;100506.00;;;;2062913;28;20318;-49
2022/12/07 02:47:59;;;;;;;11.75;10.65;;;;;20.00;100515.00;;;;2079779;28;20209;-51
2022/12/07 02:48:59;;;;;;;12.20;11.10;;;;;19.90;100507.00;;;;2077960;28;20241;-49
2022/12/07 02:50:02;;;;;;;12.73;11.53;;;;;19.90;100505.00;;;;2070003;28;20854;-50
2022/12/07 02:51:03;;;;;;;12.82;11.63;;;;;20.00;100512.00;;;;2079078;28;20217;-50
2022/12/07 02:52:03;;;;;;;12.80;11.60;;;;;20.00;100507.00;;;;2085851;28;20208;-50
2022/12/07 02:53:04;;;;;;;12.77;11.67;;;;;19.90;100510.00;;;;2086675;28;20221;-49
2022/12/07 02:54:10;;;;;;;12.50;11.40;;;;;20.00;100503.00;;;;2087178;28;20708;-50
2022/12/07 02:55:10;;;;;;;12.02;10.82;;;;;20.00;100506.00;;;;2078479;28;20385;-49
2022/12/07 02:56:44;;;;;;;14.23;12.73;;;;;19.90;100504.00;;;;2079139;28;20718;-50
2022/12/07 02:57:59;;;;;;;14.57;11.65;;;;;19.90;100498.00;;;;2086704;28;20213;-51
2022/12/07 02:59:17;;;;;;;12.05;10.95;;;;;19.90;100506.00;;;;2086707;28;20212;-52
2022/12/07 03:00:20;;;;;;;12.43;11.32;;;;;19.90;100511.00;;;;2086854;28;20635;-53
2022/12/07 03:01:42;;;;;;;12.27;11.00;;;;;19.90;100505.00;;;;2070350;28;20625;-50
2022/12/07 03:02:54;;;;;;;12.50;10.82;;;;;19.90;100508.00;;;;2074990;28;20293;-51
2022/12/07 03:04:21;;;;;;;12.68;11.38;;;;;19.90;100510.00;;;;2086595;28;20606;-51
2022/12/07 03:05:40;;;;;;;12.13;10.93;;;;;19.90;100507.00;;;;2072744;28;20212;-51
2022/12/07 03:06:43;;;;;;;13.02;11.73;;;;;19.90;100511.00;;;;2087186;28;20224;-49
2022/12/07 03:07:59;;;;;;;12.50;11.20;;;;;19.90;100511.00;;;;2087575;28;20245;-52
2022/12/07 03:09:10;;;;;;;12.30;11.10;;;;;19.90;100507.00;;;;2086258;28;20213;-51
2022/12/07 03:10:28;;;;;;;11.65;10.48;;;;;19.90;100515.00;;;;2086504;28;20700;-50
2022/12/07 03:11:33;;;;;;;11.60;10.55;;;;;19.90;100508.00;;;;2086180;28;20224;-51
2022/12/07 03:12:43;;;;;;;13.32;11.95;;;;;19.90;100503.00;;;;2085518;28;20693;-51
2022/12/07 03:13:46;;;;;;;11.63;10.52;;;;;19.90;100510.00;;;;2086451;28;20251;-50
2022/12/07 03:14:55;;;;;;;14.60;11.65;;;;;19.90;100507.00;;;;2086843;28;20217;-50
2022/12/07 03:16:03;;;;;;;11.52;10.43;;;;;19.90;100503.00;;;;2086721;28;20216;-49
2022/12/07 03:17:10;;;;;;;11.48;10.35;;;;;19.90;100513.00;;;;2086056;28;20212;-50
2022/12/07 03:18:11;;;;;;;11.23;10.23;;;;;19.80;100501.00;;;;2086730;28;20213;-51
2022/12/07 03:19:14;;;;;;;11.53;10.43;;;;;19.80;100504.00;;;;2086522;28;20215;-49
2022/12/07 03:20:17;;;;;;;11.10;10.10;;;;;19.80;100518.00;;;;2078606;28;20288;-51
2022/12/07 03:21:19;;;;;;;11.45;10.45;;;;;19.90;100506.00;;;;2086783;28;20220;-52
2022/12/07 03:22:20;;;;;;;11.55;10.35;;;;;19.80;100508.00;;;;2085381;28;20220;-49
2022/12/07 03:23:20;;;;;;;11.20;10.20;;;;;19.80;100513.00;;;;2070125;28;20214;-52
2022/12/07 03:24:22;;;;;;;12.47;10.13;;;;;19.80;100513.00;;;;2085859;28;20295;-51
2022/12/07 03:25:22;;;;;;;12.10;10.98;;;;;19.80;100506.00;;;;2078343;28;20224;-50
2022/12/07 03:26:25;;;;;;;10.70;9.70;;;;;19.80;100510.00;;;;2078437;28;20233;-51
2022/12/07 03:27:29;;;;;;;12.23;10.95;;;;;19.80;100507.00;;;;2078574;28;20213;-50
2022/12/07 03:28:36;;;;;;;11.13;10.02;;;;;19.80;100508.00;;;;2078960;28;20229;-50
2022/12/07 03:29:38;;;;;;;11.63;10.48;;;;;19.90;100512.00;;;;2078411;28;20288;-51
2022/12/07 03:30:51;;;;;;;12.23;10.65;;;;;19.90;100505.00;;;;2086694;28;20223;-52
2022/12/07 03:31:56;;;;;;;12.68;10.48;;;;;19.80;100508.00;;;;2084033;28;20227;-53
2022/12/07 03:33:03;;;;;;;10.82;9.82;;;;;19.80;100504.00;;;;2071424;28;20811;-51
2022/12/07 03:34:07;;;;;;;12.20;10.95;;;;;19.80;100511.00;;;;2078590;28;20300;-55
2022/12/07 03:35:12;;;;;;;11.57;10.48;;;;;19.80;100509.00;;;;2078553;28;20217;-52
2022/12/07 03:36:29;;;;;;;11.02;10.02;;;;;19.80;100502.00;;;;2086825;28;20320;-49
2022/12/07 03:37:33;;;;;;;11.65;10.50;;;;;19.80;100499.00;;;;2086798;28;20810;-50
2022/12/07 03:38:37;;;;;;;10.85;9.75;;;;;19.90;100500.00;;;;2085874;28;20227;-52
2022/12/07 03:39:45;;;;;;;10.25;9.35;;;;;19.90;100493.00;;;;2070222;28;20269;-50
2022/12/07 03:40:50;;;;;;;10.95;9.85;;;;;20.00;100509.00;;;;2063729;28;20307;-50
2022/12/07 03:41:50;;;;;;;10.45;9.43;;;;;20.10;100499.00;;;;2070570;28;20218;-49
2022/12/07 03:42:50;;;;;;;10.10;9.10;;;;;20.10;100500.00;;;;2086660;28;20217;-49
2022/12/07 03:43:51;;;;;;;10.03;8.83;;;;;20.20;100494.00;;;;2078504;28;20222;-49
2022/12/07 03:44:52;;;;;;;14.53;9.27;;;;;20.20;100500.00;;;;2075417;28;20229;-51
2022/12/07 03:46:15;;;;;;;9.70;8.70;;;;;20.20;100501.00;;;;2069203;28;20675;-49
2022/12/07 03:47:44;;;;;;;9.75;8.85;;;;;20.20;100511.00;;;;2068204;28;20267;-48
2022/12/07 03:48:53;;;;;;;10.65;9.13;;;;;20.20;100501.00;;;;2054098;28;20215;-49
2022/12/07 03:50:11;;;;;;;10.10;9.10;;;;;20.20;100494.00;;;;2086608;28;20588;-49
2022/12/07 03:51:25;;;;;;;10.40;9.30;;;;;20.20;100506.00;;;;2079491;28;20217;-51
2022/12/07 03:52:38;;;;;;;9.05;8.07;;;;;20.20;100501.00;;;;2076581;28;20228;-48
2022/12/07 03:53:48;;;;;;;11.10;9.00;;;;;20.10;100503.00;;;;2079485;28;20336;-51
2022/12/07 03:54:59;;;;;;;11.38;9.23;;;;;20.20;100506.00;;;;2079462;28;20209;-51
2022/12/07 03:55:59;;;;;;;11.32;9.35;;;;;20.20;100500.00;;;;2084882;28;20219;-49
2022/12/07 03:57:00;;;;;;;10.17;9.17;;;;;20.10;100499.00;;;;2086047;28;20228;-48
2022/12/07 03:58:07;;;;;;;10.27;9.03;;;;;20.10;100502.00;;;;2078350;28;20220;-49
2022/12/07 03:59:07;;;;;;;13.60;8.60;;;;;20.10;100504.00;;;;2079026;28;20364;-50
2022/12/07 04:00:09;;;;;;;9.60;8.20;;;;;20.10;100502.00;;;;2077589;28;20225;-51
2022/12/07 04:01:09;;;;;;;9.90;8.68;;;;;20.10;100499.00;;;;2069471;28;20570;-51
2022/12/07 04:02:11;;;;;;;11.03;8.90;;;;;20.10;100503.00;;;;2068601;28;20229;-50
2022/12/07 04:03:11;;;;;;;12.60;8.90;;;;;20.10;100509.00;;;;2086397;28;20456;-49
2022/12/07 04:04:11;;;;;;;10.30;8.90;;;;;20.10;100508.00;;;;2086791;28;20674;-50
2022/12/07 04:05:12;;;;;;;9.40;8.23;;;;;20.10;100503.00;;;;2086900;28;20259;-51
2022/12/07 04:06:12;;;;;;;8.90;8.10;;;;;20.10;100502.00;;;;2087197;28;20205;-50
2022/12/07 04:07:12;;;;;;;10.53;9.50;;;;;20.00;100504.00;;;;2086139;28;20209;-49
2022/12/07 04:08:13;;;;;;;13.13;8.43;;;;;20.10;100507.00;;;;2086321;28;20286;-51
2022/12/07 04:09:14;;;;;;;9.23;8.00;;;;;20.10;100505.00;;;;2086121;28;20212;-51
2022/12/07 04:10:14;;;;;;;10.15;9.15;;;;;20.10;100503.00;;;;2086054;28;20243;-49
2022/12/07 04:11:15;;;;;;;12.13;9.80;;;;;20.10;100507.00;;;;2087728;28;20280;-52
2022/12/07 04:12:15;;;;;;;10.50;8.60;;;;;20.10;100504.00;;;;2086352;28;20207;-50
2022/12/07 04:13:15;;;;;;;10.47;7.80;;;;;20.10;100503.00;;;;2086186;28;20201;-51
2022/12/07 04:14:18;;;;;;;10.07;9.07;;;;;20.00;100503.00;;;;2086665;28;20221;-51
2022/12/07 04:15:19;;;;;;;9.63;8.73;;;;;20.00;100507.00;;;;2086550;28;20208;-51
2022/12/07 04:16:19;;;;;;;10.13;8.90;;;;;20.00;100502.00;;;;2086021;28;20216;-50
2022/12/07 04:17:19;;;;;;;9.90;8.63;;;;;20.00;100508.00;;;;2087122;28;20232;-50
2022/12/07 04:18:20;;;;;;;8.00;7.13;;;;;20.00;100508.00;;;;2085779;28;20265;-51
2022/12/07 04:19:21;;;;;;;10.43;8.83;;;;;20.00;100506.00;;;;2085207;28;20205;-51
2022/12/07 04:20:21;;;;;;;9.10;7.75;;;;;20.00;100509.00;;;;2078786;28;20309;-52
2022/12/07 04:21:22;;;;;;;9.57;8.30;;;;;20.00;100500.00;;;;2078040;28;20256;-52
2022/12/07 04:22:22;;;;;;;9.87;8.53;;;;;20.00;100500.00;;;;2077014;28;20698;-51
2022/12/07 04:23:22;;;;;;;10.70;8.93;;;;;20.00;100501.00;;;;2078567;28;20205;-52
2022/12/07 04:24:23;;;;;;;8.83;7.73;;;;;20.00;100503.00;;;;2078425;28;20210;-52
2022/12/07 04:25:23;;;;;;;8.90;8.10;;;;;20.00;100509.00;;;;2070411;28;20213;-51
2022/12/07 04:26:23;;;;;;;9.23;8.03;;;;;20.00;100507.00;;;;2078047;28;20206;-50
2022/12/07 04:27:23;;;;;;;11.37;9.27;;;;;20.00;100499.00;;;;2079185;28;20213;-51
2022/12/07 04:28:24;;;;;;;9.40;8.10;;;;;20.00;100495.00;;;;2078928;28;20210;-51
2022/12/07 04:29:24;;;;;;;8.90;8.10;;;;;20.00;100499.00;;;;2078709;28;20212;-52
2022/12/07 04:30:25;;;;;;;8.93;8.13;;;;;20.00;100499.00;;;;2074746;28;20651;-52
2022/12/07 04:31:25;;;;;;;9.30;8.40;;;;;20.00;100498.00;;;;2078871;28;20210;-53
2022/12/07 04:32:25;;;;;;;10.40;9.40;;;;;20.00;100495.00;;;;2077881;28;20201;-53
2022/12/07 04:33:26;;;;;;;8.40;7.37;;;;;20.00;100501.00;;;;2078675;28;20291;-53
2022/12/07 04:34:26;;;;;;;9.23;8.33;;;;;20.00;100499.00;;;;2078567;28;20217;-52
2022/12/07 04:35:26;;;;;;;9.53;8.63;;;;;20.00;100496.00;;;;2082789;28;20223;-49
2022/12/07 04:36:27;;;;;;;8.23;7.40;;;;;19.90;100498.00;;;;2087264;28;20328;-49
2022/12/07 04:37:27;;;;;;;9.27;8.37;;;;;19.90;100493.00;;;;2086166;28;20212;-50
2022/12/07 04:38:27;;;;;;;9.60;7.30;;;;;19.90;100491.00;;;;2085942;28;20216;-50
2022/12/07 04:39:29;;;;;;;7.90;7.20;;;;;19.90;100490.00;;;;2086527;28;20212;-51
2022/12/07 04:40:29;;;;;;;10.25;7.97;;;;;20.00;100490.00;;;;2086780;28;20217;-51
2022/12/07 04:41:29;;;;;;;9.03;8.07;;;;;19.90;100490.00;;;;2087055;28;20208;-52
2022/12/07 04:42:30;;;;;;;8.83;7.93;;;;;19.90;100488.00;;;;2086010;28;20241;-51
2022/12/07 04:43:30;;;;;;;8.90;8.00;;;;;19.90;100487.00;;;;2086933;28;20227;-51
2022/12/07 04:44:30;;;;;;;9.37;7.90;;;;;20.00;100491.00;;;;2085331;28;20213;-51
2022/12/07 04:45:31;;;;;;;8.30;7.50;;;;;20.00;100495.00;;;;2078875;28;20305;-50
2022/12/07 04:46:31;;;;;;;8.43;7.57;;;;;20.00;100499.00;;;;2078550;28;20643;-49
2022/12/07 04:47:31;;;;;;;9.97;8.73;;;;;20.00;100495.00;;;;2078601;28;20574;-50
2022/12/07 04:48:32;;;;;;;7.90;7.10;;;;;20.00;100496.00;;;;2078723;28;20241;-51
2022/12/07 04:49:32;;;;;;;9.23;8.13;;;;;19.90;100474.00;;;;2078724;28;20214;-51
2022/12/07 04:50:33;;;;;;;8.93;8.10;;;;;19.90;100496.00;;;;2077788;28;20214;-53
2022/12/07 04:51:33;;;;;;;7.83;7.13;;;;;20.00;100497.00;;;;2078443;28;20259;-50
2022/12/07 04:52:33;;;;;;;10.03;7.63;;;;;20.00;100504.00;;;;2077599;28;20201;-51
2022/12/07 04:53:34;;;;;;;7.67;6.97;;;;;19.90;100498.00;;;;2078949;28;20232;-50
2022/12/07 04:54:34;;;;;;;7.90;7.20;;;;;20.00;100504.00;;;;2080393;28;20232;-52
2022/12/07 04:55:34;;;;;;;7.67;6.97;;;;;19.90;100499.00;;;;2082864;28;20224;-49
2022/12/07 04:56:35;;;;;;;8.93;7.30;;;;;19.90;100499.00;;;;2080466;28;20252;-52
2022/12/07 04:57:35;;;;;;;7.57;6.87;;;;;19.90;100498.00;;;;2080130;28;20224;-51
2022/12/07 04:58:35;;;;;;;7.60;6.80;;;;;19.90;100498.00;;;;2080234;28;20228;-51
2022/12/07 04:59:36;;;;;;;7.77;7.07;;;;;19.90;100493.00;;;;2079889;28;20247;-50
2022/12/07 05:00:36;;;;;;;8.60;6.93;;;;;19.90;100493.00;;;;2079872;28;20217;-52
2022/12/07 05:01:36;;;;;;;8.37;7.57;;;;;19.90;100490.00;;;;2080192;28;20225;-52
2022/12/07 05:02:37;;;;;;;7.73;6.90;;;;;19.90;100494.00;;;;2079574;28;20258;-52
2022/12/07 05:03:37;;;;;;;7.80;7.00;;;;;19.90;100491.00;;;;2080342;28;20229;-52
2022/12/07 05:04:37;;;;;;;7.57;6.83;;;;;19.90;100489.00;;;;2080219;28;20221;-48
2022/12/07 05:05:40;;;;;;;7.63;6.93;;;;;19.90;100489.00;;;;2080387;28;20222;-48
2022/12/07 05:06:41;;;;;;;8.23;7.50;;;;;19.90;100489.00;;;;2080442;28;20247;-52
2022/12/07 05:07:41;;;;;;;8.53;7.60;;;;;19.90;100451.00;;;;2080140;28;20550;-52
2022/12/07 05:08:42;;;;;;;7.70;6.97;;;;;19.90;100459.00;;;;2079431;28;20208;-53
2022/12/07 05:09:43;;;;;;;8.23;7.32;;;;;19.90;100496.00;;;;2084909;28;20209;-52